createdAt,value
2017-01-31T00:00:29.271Z,0
2017-01-31T00:01:40.676Z,0
2017-01-31T00:02:52.332Z,0
2017-01-31T00:04:03.734Z,0
2017-01-31T00:05:15.139Z,0
2017-01-31T00:06:26.547Z,0
2017-01-31T00:07:37.960Z,0
2017-01-31T00:08:49.413Z,0
2017-01-31T00:10:00.820Z,0
2017-01-31T00:11:12.228Z,0
2017-01-31T00:12:23.636Z,0
2017-01-31T00:13:35.047Z,0
2017-01-31T00:14:46.511Z,0
2017-01-31T00:15:57.913Z,0
2017-01-31T00:17:09.311Z,0
2017-01-31T00:18:20.916Z,0
2017-01-31T00:19:32.325Z,0
2017-01-31T00:20:43.783Z,0
2017-01-31T00:21:55.392Z,0
2017-01-31T00:23:06.795Z,0
2017-01-31T00:24:18.200Z,0
2017-01-31T00:25:29.602Z,0
2017-01-31T00:26:41.059Z,0
2017-01-31T00:27:52.663Z,0
2017-01-31T00:29:04.065Z,0
2017-01-31T00:30:15.468Z,0
2017-01-31T00:31:26.868Z,0
2017-01-31T00:32:38.357Z,0
2017-01-31T00:33:49.765Z,0
2017-01-31T00:35:01.373Z,0
2017-01-31T00:36:12.768Z,0
2017-01-31T00:37:24.176Z,0
2017-01-31T00:38:35.641Z,0
2017-01-31T00:39:47.054Z,0
2017-01-31T00:40:58.458Z,0
2017-01-31T00:42:09.868Z,0
2017-01-31T00:43:21.277Z,0
2017-01-31T00:44:32.735Z,0
2017-01-31T00:45:44.143Z,0
2017-01-31T00:46:55.553Z,0
2017-01-31T00:48:06.951Z,0
2017-01-31T00:49:18.556Z,0
2017-01-31T00:50:30.013Z,0
2017-01-31T00:51:41.619Z,0
2017-01-31T00:52:53.024Z,0
2017-01-31T00:54:04.627Z,0
2017-01-31T00:55:16.026Z,0
2017-01-31T00:56:27.884Z,0
2017-01-31T00:57:39.294Z,0
2017-01-31T00:58:50.693Z,0
2017-01-31T01:00:02.102Z,0
2017-01-31T01:01:13.508Z,0
2017-01-31T01:02:24.991Z,0
2017-01-31T01:03:36.408Z,0
2017-01-31T01:04:47.807Z,0
2017-01-31T01:05:59.415Z,0
2017-01-31T01:07:10.814Z,0
2017-01-31T01:08:22.302Z,0
2017-01-31T01:09:33.701Z,0
2017-01-31T01:10:45.102Z,0
2017-01-31T01:11:56.509Z,0
2017-01-31T01:13:08.122Z,0
2017-01-31T01:14:19.573Z,0
2017-01-31T01:15:30.973Z,0
2017-01-31T01:16:42.582Z,0
2017-01-31T01:17:54.192Z,0
2017-01-31T01:19:05.597Z,0
2017-01-31T01:20:17.252Z,0
2017-01-31T01:21:28.666Z,0
2017-01-31T01:22:40.077Z,0
2017-01-31T01:23:51.478Z,0
2017-01-31T01:25:02.889Z,0
2017-01-31T01:26:14.343Z,0
2017-01-31T01:27:25.748Z,0
2017-01-31T01:28:37.145Z,0
2017-01-31T01:29:48.552Z,0
2017-01-31T01:30:59.951Z,0
2017-01-31T01:32:11.608Z,0
2017-01-31T01:33:23.014Z,0
2017-01-31T01:34:34.437Z,0
2017-01-31T01:35:45.845Z,0
2017-01-31T01:36:57.252Z,0
2017-01-31T01:38:08.711Z,0
2017-01-31T01:39:20.114Z,0
2017-01-31T01:40:31.722Z,0
2017-01-31T01:41:43.160Z,0
2017-01-31T01:42:54.561Z,0
2017-01-31T01:44:06.007Z,0
2017-01-31T01:45:17.412Z,0
2017-01-31T01:46:28.833Z,0
2017-01-31T01:47:40.442Z,0
2017-01-31T01:48:51.850Z,0
2017-01-31T01:50:03.495Z,0
2017-01-31T01:51:14.898Z,0
2017-01-31T01:52:26.337Z,0
2017-01-31T01:53:37.742Z,0
2017-01-31T01:54:49.148Z,0
2017-01-31T01:56:00.609Z,0
2017-01-31T01:57:12.012Z,0
2017-01-31T01:58:23.427Z,0
2017-01-31T01:59:35.032Z,0
2017-01-31T02:00:46.443Z,0
2017-01-31T02:01:57.900Z,0
2017-01-31T02:03:09.507Z,0
2017-01-31T02:04:21.113Z,0
2017-01-31T02:05:32.519Z,0
2017-01-31T02:06:43.948Z,0
2017-01-31T02:07:55.408Z,0
2017-01-31T02:09:07.012Z,0
2017-01-31T02:10:18.422Z,0
2017-01-31T02:11:29.833Z,0
2017-01-31T02:12:41.236Z,0
2017-01-31T02:13:52.685Z,0
2017-01-31T02:15:04.093Z,0
2017-01-31T02:16:15.507Z,0
2017-01-31T02:17:26.924Z,0
2017-01-31T02:18:38.530Z,0
2017-01-31T02:19:49.989Z,0
2017-01-31T02:21:01.598Z,0
2017-01-31T02:22:13.006Z,0
2017-01-31T02:23:24.411Z,0
2017-01-31T02:24:36.017Z,0
2017-01-31T02:25:47.672Z,0
2017-01-31T02:26:59.282Z,0
2017-01-31T02:28:10.710Z,0
2017-01-31T02:29:22.111Z,0
2017-01-31T02:30:33.510Z,0
2017-01-31T02:31:45.174Z,0
2017-01-31T02:32:56.790Z,0
2017-01-31T02:34:08.219Z,0
2017-01-31T02:35:19.626Z,0
2017-01-31T02:36:31.230Z,0
2017-01-31T02:37:42.889Z,0
2017-01-31T02:38:54.488Z,0
2017-01-31T02:40:05.900Z,0
2017-01-31T02:41:17.302Z,0
2017-01-31T02:42:29.106Z,0
2017-01-31T02:43:40.556Z,0
2017-01-31T02:44:51.959Z,0
2017-01-31T02:46:03.367Z,0
2017-01-31T02:47:14.765Z,0
2017-01-31T02:48:26.172Z,0
2017-01-31T02:49:37.627Z,0
2017-01-31T02:50:49.030Z,0
2017-01-31T02:52:00.439Z,0
2017-01-31T02:53:11.848Z,0
2017-01-31T02:54:23.459Z,0
2017-01-31T02:55:34.916Z,0
2017-01-31T02:56:46.324Z,0
2017-01-31T02:57:57.758Z,0
2017-01-31T02:59:09.165Z,0
2017-01-31T03:00:20.771Z,0
2017-01-31T03:01:32.225Z,0
2017-01-31T03:02:43.633Z,0
2017-01-31T03:03:55.042Z,0
2017-01-31T03:05:06.452Z,0
2017-01-31T03:06:17.852Z,0
2017-01-31T03:07:29.508Z,0
2017-01-31T03:08:41.109Z,0
2017-01-31T03:09:52.513Z,0
2017-01-31T03:11:03.929Z,0
2017-01-31T03:12:15.327Z,0
2017-01-31T03:13:26.780Z,0
2017-01-31T03:14:38.395Z,0
2017-01-31T03:15:49.799Z,0
2017-01-31T03:17:01.228Z,0
2017-01-31T03:18:12.629Z,0
2017-01-31T03:19:24.103Z,0
2017-01-31T03:20:35.513Z,0
2017-01-31T03:21:46.917Z,0
2017-01-31T03:22:58.326Z,0
2017-01-31T03:24:09.733Z,0
2017-01-31T03:25:21.194Z,0
2017-01-31T03:26:32.600Z,0
2017-01-31T03:27:43.997Z,0
2017-01-31T03:28:55.399Z,0
2017-01-31T03:30:07.008Z,0
2017-01-31T03:31:18.461Z,0
2017-01-31T03:32:30.066Z,0
2017-01-31T03:33:41.470Z,0
2017-01-31T03:34:52.872Z,0
2017-01-31T03:36:04.283Z,0
2017-01-31T03:37:15.734Z,0
2017-01-31T03:38:27.142Z,0
2017-01-31T03:39:38.550Z,0
2017-01-31T03:40:50.158Z,0
2017-01-31T03:42:01.582Z,0
2017-01-31T03:43:13.030Z,0
2017-01-31T03:44:24.437Z,0
2017-01-31T03:45:35.841Z,0
2017-01-31T03:46:47.245Z,0
2017-01-31T03:47:58.840Z,0
2017-01-31T03:49:10.297Z,0
2017-01-31T03:50:21.901Z,0
2017-01-31T03:51:33.306Z,0
2017-01-31T03:52:44.719Z,0
2017-01-31T03:53:56.337Z,0
2017-01-31T03:55:07.834Z,0
2017-01-31T03:56:19.438Z,0
2017-01-31T03:57:30.853Z,0
2017-01-31T03:58:42.259Z,0
2017-01-31T03:59:53.668Z,0
2017-01-31T04:01:05.126Z,0
2017-01-31T04:02:16.541Z,0
2017-01-31T04:03:27.952Z,0
2017-01-31T04:04:39.355Z,0
2017-01-31T04:05:50.768Z,0
2017-01-31T04:07:02.220Z,0
2017-01-31T04:08:13.628Z,0
2017-01-31T04:09:25.039Z,0
2017-01-31T04:10:36.649Z,0
2017-01-31T04:11:48.052Z,0
2017-01-31T04:12:59.708Z,0
2017-01-31T04:14:11.115Z,0
2017-01-31T04:15:22.925Z,0
2017-01-31T04:16:34.357Z,0
2017-01-31T04:17:45.970Z,0
2017-01-31T04:18:57.416Z,0
2017-01-31T04:20:09.028Z,0
2017-01-31T04:21:20.631Z,0
2017-01-31T04:22:32.244Z,0
2017-01-31T04:23:43.650Z,0
2017-01-31T04:24:55.101Z,0
2017-01-31T04:26:06.503Z,0
2017-01-31T04:27:17.907Z,0
2017-01-31T04:28:29.316Z,0
2017-01-31T04:29:40.722Z,0
2017-01-31T04:30:52.168Z,0
2017-01-31T04:32:03.564Z,0
2017-01-31T04:33:14.973Z,0
2017-01-31T04:34:26.373Z,0
2017-01-31T04:35:37.779Z,0
2017-01-31T04:36:49.455Z,0
2017-01-31T04:38:00.878Z,0
2017-01-31T04:39:12.284Z,0
2017-01-31T04:40:23.681Z,0
2017-01-31T04:41:35.287Z,0
2017-01-31T04:42:46.943Z,0
2017-01-31T04:43:58.349Z,0
2017-01-31T04:45:09.956Z,0
2017-01-31T04:46:21.359Z,0
2017-01-31T04:47:32.764Z,0
2017-01-31T04:48:44.260Z,0
2017-01-31T04:49:55.667Z,0
2017-01-31T04:51:07.084Z,0
2017-01-31T04:52:18.523Z,0
2017-01-31T04:53:29.953Z,0
2017-01-31T04:54:41.406Z,0
2017-01-31T04:55:52.809Z,0
2017-01-31T04:57:04.246Z,0
2017-01-31T04:58:15.847Z,0
2017-01-31T04:59:27.253Z,0
2017-01-31T05:00:38.905Z,0
2017-01-31T05:01:50.305Z,0
2017-01-31T05:03:01.709Z,0
2017-01-31T05:04:13.116Z,0
2017-01-31T05:05:24.524Z,0
2017-01-31T05:06:36.179Z,0
2017-01-31T05:07:47.588Z,0
2017-01-31T05:08:58.989Z,0
2017-01-31T05:10:10.403Z,0
2017-01-31T05:11:21.807Z,0
2017-01-31T05:12:33.254Z,0
2017-01-31T05:13:44.859Z,0
2017-01-31T05:14:56.260Z,0
2017-01-31T05:16:07.669Z,0
2017-01-31T05:17:19.066Z,0
2017-01-31T05:18:30.521Z,0
2017-01-31T05:19:41.919Z,0
2017-01-31T05:20:53.338Z,0
2017-01-31T05:22:04.743Z,0
2017-01-31T05:23:16.158Z,0
2017-01-31T05:24:27.608Z,0
2017-01-31T05:25:39.009Z,0
2017-01-31T05:26:50.425Z,0
2017-01-31T05:28:01.836Z,0
2017-01-31T05:29:13.239Z,0
2017-01-31T05:30:24.896Z,0
2017-01-31T05:31:36.304Z,0
2017-01-31T05:32:47.712Z,0
2017-01-31T05:33:59.123Z,0
2017-01-31T05:35:10.933Z,0
2017-01-31T05:36:22.592Z,0
2017-01-31T05:37:33.995Z,0
2017-01-31T05:38:45.395Z,0
2017-01-31T05:39:56.802Z,0
2017-01-31T05:41:08.202Z,0
2017-01-31T05:42:19.658Z,0
2017-01-31T05:43:31.066Z,0
2017-01-31T05:44:42.472Z,0
2017-01-31T05:45:53.874Z,0
2017-01-31T05:47:05.281Z,0
2017-01-31T05:48:16.937Z,0
2017-01-31T05:49:28.341Z,0
2017-01-31T05:50:39.746Z,0
2017-01-31T05:51:51.147Z,0
2017-01-31T05:53:02.549Z,0
2017-01-31T05:54:14.001Z,0
2017-01-31T05:55:25.403Z,0
2017-01-31T05:56:36.805Z,0
2017-01-31T05:57:48.404Z,0
2017-01-31T05:58:59.810Z,0
2017-01-31T06:00:11.460Z,0
2017-01-31T06:01:22.857Z,0
2017-01-31T06:02:34.285Z,0
2017-01-31T06:03:45.690Z,0
2017-01-31T06:04:57.092Z,0
2017-01-31T06:06:08.553Z,0
2017-01-31T06:07:19.949Z,0
2017-01-31T06:08:31.359Z,0
2017-01-31T06:09:42.768Z,0
2017-01-31T06:10:54.373Z,0
2017-01-31T06:12:06.038Z,0
2017-01-31T06:13:17.642Z,0
2017-01-31T06:14:29.052Z,0
2017-01-31T06:15:40.487Z,0
2017-01-31T06:16:52.090Z,0
2017-01-31T06:18:03.545Z,0
2017-01-31T06:19:14.952Z,0
2017-01-31T06:20:26.555Z,0
2017-01-31T06:21:37.955Z,0
2017-01-31T06:22:49.354Z,0
2017-01-31T06:24:00.812Z,0
2017-01-31T06:25:12.211Z,0
2017-01-31T06:26:23.616Z,0
2017-01-31T06:27:35.009Z,0
2017-01-31T06:28:46.419Z,0
2017-01-31T06:29:57.867Z,0
2017-01-31T06:31:09.500Z,0
2017-01-31T06:32:20.910Z,0
2017-01-31T06:33:32.511Z,0
2017-01-31T06:34:43.927Z,0
2017-01-31T06:35:55.373Z,0
2017-01-31T06:37:06.783Z,0
2017-01-31T06:38:18.396Z,0
2017-01-31T06:39:29.802Z,0
2017-01-31T06:40:41.200Z,0
2017-01-31T06:41:52.654Z,4
2017-01-31T06:43:04.046Z,4
2017-01-31T06:44:15.486Z,0
2017-01-31T06:45:26.919Z,0
2017-01-31T06:46:38.328Z,0
2017-01-31T06:47:49.782Z,4
2017-01-31T06:49:01.383Z,4
2017-01-31T06:50:12.785Z,0
2017-01-31T06:51:24.182Z,4
2017-01-31T06:52:35.588Z,8
2017-01-31T06:53:47.038Z,4
2017-01-31T06:54:58.451Z,8
2017-01-31T06:56:09.899Z,8
2017-01-31T06:57:21.304Z,8
2017-01-31T06:58:32.706Z,8
2017-01-31T06:59:44.158Z,12
2017-01-31T07:00:55.559Z,12
2017-01-31T07:02:06.973Z,12
2017-01-31T07:03:18.574Z,16
2017-01-31T07:04:29.974Z,16
2017-01-31T07:05:41.436Z,20
2017-01-31T07:06:52.849Z,24
2017-01-31T07:08:04.256Z,24
2017-01-31T07:09:15.665Z,24
2017-01-31T07:10:27.482Z,28
2017-01-31T07:11:38.926Z,32
2017-01-31T07:12:50.343Z,36
2017-01-31T07:14:01.949Z,40
2017-01-31T07:15:13.350Z,44
2017-01-31T07:16:24.964Z,48
2017-01-31T07:17:36.616Z,52
2017-01-31T07:18:48.026Z,56
2017-01-31T07:19:59.434Z,56
2017-01-31T07:21:10.832Z,60
2017-01-31T07:22:22.237Z,68
2017-01-31T07:23:33.689Z,72
2017-01-31T07:24:45.094Z,80
2017-01-31T07:25:56.497Z,80
2017-01-31T07:27:07.903Z,84
2017-01-31T07:28:19.316Z,96
2017-01-31T07:29:30.778Z,108
2017-01-31T07:30:42.182Z,112
2017-01-31T07:31:53.591Z,124
2017-01-31T07:33:04.993Z,136
2017-01-31T07:34:16.396Z,144
2017-01-31T07:35:27.852Z,152
2017-01-31T07:36:39.259Z,152
2017-01-31T07:37:50.664Z,156
2017-01-31T07:39:02.071Z,160
2017-01-31T07:40:13.470Z,160
2017-01-31T07:41:24.934Z,152
2017-01-31T07:42:36.341Z,152
2017-01-31T07:43:47.946Z,160
2017-01-31T07:44:59.554Z,160
2017-01-31T07:46:10.958Z,160
2017-01-31T07:47:22.421Z,164
2017-01-31T07:48:33.831Z,156
2017-01-31T07:49:45.235Z,148
2017-01-31T07:50:56.845Z,144
2017-01-31T07:52:08.249Z,152
2017-01-31T07:53:19.709Z,156
2017-01-31T07:54:31.317Z,172
2017-01-31T07:55:42.723Z,180
2017-01-31T07:56:54.146Z,184
2017-01-31T07:58:05.587Z,200
2017-01-31T07:59:17.039Z,212
2017-01-31T08:00:28.446Z,212
2017-01-31T08:01:39.849Z,216
2017-01-31T08:02:51.453Z,236
2017-01-31T08:04:02.864Z,256
2017-01-31T08:05:14.313Z,264
2017-01-31T08:06:25.712Z,268
2017-01-31T08:07:37.117Z,280
2017-01-31T08:08:48.521Z,304
2017-01-31T08:09:59.947Z,320
2017-01-31T08:11:11.408Z,328
2017-01-31T08:12:22.813Z,348
2017-01-31T08:13:34.219Z,388
2017-01-31T08:14:45.626Z,428
2017-01-31T08:15:57.234Z,472
2017-01-31T08:17:08.705Z,480
2017-01-31T08:18:20.121Z,488
2017-01-31T08:19:31.727Z,480
2017-01-31T08:20:43.135Z,492
2017-01-31T08:21:54.548Z,524
2017-01-31T08:23:06.006Z,544
2017-01-31T08:24:17.445Z,536
2017-01-31T08:25:28.851Z,528
2017-01-31T08:26:40.266Z,556
2017-01-31T08:27:51.674Z,612
2017-01-31T08:29:03.145Z,624
2017-01-31T08:30:14.553Z,616
2017-01-31T08:31:25.955Z,664
2017-01-31T08:32:37.359Z,748
2017-01-31T08:33:48.770Z,860
2017-01-31T08:35:00.227Z,1028
2017-01-31T08:36:11.622Z,1152
2017-01-31T08:37:23.028Z,1184
2017-01-31T08:38:34.438Z,1284
2017-01-31T08:39:45.849Z,1340
2017-01-31T08:40:57.308Z,1380
2017-01-31T08:42:08.721Z,1472
2017-01-31T08:43:20.121Z,1636
2017-01-31T08:44:31.520Z,1508
2017-01-31T08:45:42.938Z,1252
2017-01-31T08:46:54.404Z,1280
2017-01-31T08:48:05.824Z,1364
2017-01-31T08:49:17.235Z,1524
2017-01-31T08:50:28.642Z,1600
2017-01-31T08:51:40.054Z,1672
2017-01-31T08:52:51.510Z,1648
2017-01-31T08:54:02.917Z,1760
2017-01-31T08:55:14.325Z,2048
2017-01-31T08:56:25.726Z,2332
2017-01-31T08:57:37.134Z,2408
2017-01-31T08:58:48.594Z,2412
2017-01-31T09:00:00.008Z,2216
2017-01-31T09:01:11.416Z,1856
2017-01-31T09:02:22.829Z,1656
2017-01-31T09:03:34.241Z,1664
2017-01-31T09:04:45.689Z,1728
2017-01-31T09:05:57.095Z,1776
2017-01-31T09:07:08.498Z,1924
2017-01-31T09:08:19.907Z,1992
2017-01-31T09:09:31.509Z,1916
2017-01-31T09:10:42.968Z,2012
2017-01-31T09:11:54.373Z,2132
2017-01-31T09:13:05.805Z,2200
2017-01-31T09:14:17.210Z,2236
2017-01-31T09:15:28.612Z,2172
2017-01-31T09:16:40.069Z,2072
2017-01-31T09:17:51.475Z,1908
2017-01-31T09:19:02.879Z,1580
2017-01-31T09:20:14.488Z,1340
2017-01-31T09:21:25.895Z,1308
2017-01-31T09:22:37.553Z,1408
2017-01-31T09:23:48.971Z,1612
2017-01-31T09:25:00.387Z,1944
2017-01-31T09:26:11.800Z,2268
2017-01-31T09:27:23.221Z,2508
2017-01-31T09:28:34.874Z,2564
2017-01-31T09:29:46.275Z,2364
2017-01-31T09:30:57.678Z,2108
2017-01-31T09:32:09.090Z,2004
2017-01-31T09:33:20.495Z,2076
2017-01-31T09:34:31.955Z,2208
2017-01-31T09:35:43.368Z,2260
2017-01-31T09:36:54.992Z,2148
2017-01-31T09:38:06.417Z,1948
2017-01-31T09:39:17.820Z,1784
2017-01-31T09:40:29.280Z,1744
2017-01-31T09:41:40.890Z,1664
2017-01-31T09:42:52.295Z,1504
2017-01-31T09:44:03.703Z,1364
2017-01-31T09:45:15.316Z,1296
2017-01-31T09:46:26.780Z,1272
2017-01-31T09:47:38.186Z,1260
2017-01-31T09:48:49.595Z,1228
2017-01-31T09:50:01.207Z,1212
2017-01-31T09:51:12.623Z,1216
2017-01-31T09:52:24.081Z,1216
2017-01-31T09:53:35.490Z,1208
2017-01-31T09:54:46.887Z,1200
2017-01-31T09:55:58.295Z,1180
2017-01-31T09:57:09.707Z,1176
2017-01-31T09:58:21.161Z,1180
2017-01-31T09:59:32.573Z,1176
2017-01-31T10:00:43.981Z,1200
2017-01-31T10:01:55.389Z,1252
2017-01-31T10:03:06.796Z,1324
2017-01-31T10:04:18.261Z,1404
2017-01-31T10:05:29.671Z,1448
2017-01-31T10:06:41.086Z,1468
2017-01-31T10:07:52.502Z,1488
2017-01-31T10:09:03.904Z,1504
2017-01-31T10:10:15.360Z,1504
2017-01-31T10:11:26.766Z,1452
2017-01-31T10:12:38.376Z,1348
2017-01-31T10:13:49.783Z,1296
2017-01-31T10:15:01.181Z,1244
2017-01-31T10:16:12.635Z,1148
2017-01-31T10:17:24.239Z,1044
2017-01-31T10:18:35.648Z,1032
2017-01-31T10:19:47.051Z,1148
2017-01-31T10:20:58.466Z,1236
2017-01-31T10:22:09.915Z,1232
2017-01-31T10:23:21.526Z,1260
2017-01-31T10:24:32.930Z,1384
2017-01-31T10:25:44.331Z,1552
2017-01-31T10:26:55.738Z,1756
2017-01-31T10:28:07.209Z,1960
2017-01-31T10:29:18.809Z,2044
2017-01-31T10:30:30.412Z,2072
2017-01-31T10:31:41.829Z,2088
2017-01-31T10:32:53.229Z,2096
2017-01-31T10:34:04.687Z,2076
2017-01-31T10:35:16.096Z,2056
2017-01-31T10:36:27.503Z,1952
2017-01-31T10:37:38.916Z,1916
2017-01-31T10:38:50.348Z,1928
2017-01-31T10:40:01.804Z,1928
2017-01-31T10:41:13.216Z,1880
2017-01-31T10:42:24.620Z,1872
2017-01-31T10:43:36.029Z,1904
2017-01-31T10:44:47.435Z,1920
2017-01-31T10:45:59.097Z,1892
2017-01-31T10:47:10.504Z,1900
2017-01-31T10:48:21.903Z,1932
2017-01-31T10:49:33.317Z,1892
2017-01-31T10:50:44.748Z,1976
2017-01-31T10:51:56.205Z,2084
2017-01-31T10:53:07.617Z,2068
2017-01-31T10:54:19.032Z,2000
2017-01-31T10:55:30.440Z,2016
2017-01-31T10:56:41.849Z,2020
2017-01-31T10:57:53.300Z,2004
2017-01-31T10:59:04.717Z,1980
2017-01-31T11:00:16.126Z,2084
2017-01-31T11:01:27.528Z,2104
2017-01-31T11:02:38.931Z,2028
2017-01-31T11:03:50.594Z,2020
2017-01-31T11:05:02.003Z,2020
2017-01-31T11:06:13.422Z,2024
2017-01-31T11:07:24.835Z,2048
2017-01-31T11:08:36.246Z,2124
2017-01-31T11:09:47.703Z,2208
2017-01-31T11:10:59.314Z,2292
2017-01-31T11:12:10.750Z,2344
2017-01-31T11:13:22.153Z,2508
2017-01-31T11:14:33.558Z,2552
2017-01-31T11:15:45.011Z,2464
2017-01-31T11:16:56.419Z,2468
2017-01-31T11:18:08.029Z,2548
2017-01-31T11:19:19.636Z,2652
2017-01-31T11:20:31.237Z,2728
2017-01-31T11:21:42.896Z,2784
2017-01-31T11:22:54.299Z,2784
2017-01-31T11:24:05.708Z,2684
2017-01-31T11:25:17.108Z,2576
2017-01-31T11:26:28.725Z,2548
2017-01-31T11:27:40.190Z,2532
2017-01-31T11:28:51.793Z,2524
2017-01-31T11:30:03.193Z,2488
2017-01-31T11:31:14.622Z,2300
2017-01-31T11:32:26.231Z,2036
2017-01-31T11:33:37.691Z,1832
2017-01-31T11:34:49.101Z,1716
2017-01-31T11:36:00.515Z,1632
2017-01-31T11:37:11.920Z,1588
2017-01-31T11:38:23.525Z,1576
2017-01-31T11:39:34.984Z,1540
2017-01-31T11:40:46.393Z,1520
2017-01-31T11:41:57.804Z,1560
2017-01-31T11:43:09.214Z,1632
2017-01-31T11:44:20.618Z,1660
2017-01-31T11:45:32.078Z,1680
2017-01-31T11:46:43.492Z,1704
2017-01-31T11:47:54.893Z,1676
2017-01-31T11:49:06.301Z,1584
2017-01-31T11:50:17.709Z,1484
2017-01-31T11:51:29.369Z,1448
2017-01-31T11:52:40.787Z,1464
2017-01-31T11:53:52.186Z,1472
2017-01-31T11:55:03.594Z,1452
2017-01-31T11:56:15.009Z,1452
2017-01-31T11:57:26.466Z,1476
2017-01-31T11:58:37.870Z,1512
2017-01-31T11:59:49.282Z,1548
2017-01-31T12:01:00.695Z,1584
2017-01-31T12:02:12.095Z,1628
2017-01-31T12:03:23.751Z,1736
2017-01-31T12:04:35.167Z,1932
2017-01-31T12:05:46.570Z,2112
2017-01-31T12:06:57.975Z,2212
2017-01-31T12:08:09.790Z,2272
2017-01-31T12:09:21.246Z,2288
2017-01-31T12:10:32.655Z,2216
2017-01-31T12:11:44.289Z,2116
2017-01-31T12:12:55.698Z,2060
2017-01-31T12:14:07.135Z,1992
2017-01-31T12:15:18.593Z,1868
2017-01-31T12:16:30.001Z,1728
2017-01-31T12:17:41.417Z,1644
2017-01-31T12:18:53.024Z,1612
2017-01-31T12:20:04.438Z,1592
2017-01-31T12:21:16.290Z,1584
2017-01-31T12:22:27.700Z,1600
2017-01-31T12:23:39.102Z,1644
2017-01-31T12:24:50.506Z,1676
2017-01-31T12:26:01.917Z,1648
2017-01-31T12:27:13.371Z,1564
2017-01-31T12:28:24.782Z,1472
2017-01-31T12:29:36.391Z,1428
2017-01-31T12:30:48.002Z,1408
2017-01-31T12:31:59.441Z,1372
2017-01-31T12:33:10.916Z,1336
2017-01-31T12:34:22.324Z,1324
2017-01-31T12:35:33.737Z,1332
2017-01-31T12:36:45.148Z,1344
2017-01-31T12:37:56.560Z,1352
2017-01-31T12:39:08.219Z,1360
2017-01-31T12:40:19.623Z,1380
2017-01-31T12:41:31.026Z,1388
2017-01-31T12:42:42.434Z,1376
2017-01-31T12:43:53.841Z,1368
2017-01-31T12:45:05.308Z,1380
2017-01-31T12:46:16.713Z,1396
2017-01-31T12:47:28.125Z,1404
2017-01-31T12:48:39.540Z,1392
2017-01-31T12:49:50.945Z,1404
2017-01-31T12:51:02.407Z,1428
2017-01-31T12:52:13.818Z,1440
2017-01-31T12:53:25.230Z,1412
2017-01-31T12:54:36.664Z,1388
2017-01-31T12:55:48.073Z,1392
2017-01-31T12:56:59.524Z,1416
2017-01-31T12:58:10.939Z,1440
2017-01-31T12:59:22.347Z,1460
2017-01-31T13:00:33.750Z,1484
2017-01-31T13:01:45.160Z,1492
2017-01-31T13:02:56.620Z,1500
2017-01-31T13:04:08.031Z,1512
2017-01-31T13:05:20.045Z,1524
2017-01-31T13:06:31.490Z,1532
2017-01-31T13:07:42.902Z,1536
2017-01-31T13:08:54.373Z,1544
2017-01-31T13:10:05.773Z,1560
2017-01-31T13:11:17.383Z,1568
2017-01-31T13:12:28.788Z,1540
2017-01-31T13:13:40.189Z,1508
2017-01-31T13:14:51.648Z,1504
2017-01-31T13:16:03.057Z,1540
2017-01-31T13:17:14.458Z,1596
2017-01-31T13:18:25.879Z,1652
2017-01-31T13:19:37.285Z,1704
2017-01-31T13:20:48.747Z,1744
2017-01-31T13:22:00.169Z,1772
2017-01-31T13:23:11.593Z,1776
2017-01-31T13:24:23.006Z,1780
2017-01-31T13:25:34.414Z,1820
2017-01-31T13:26:46.074Z,1876
2017-01-31T13:27:57.679Z,1904
2017-01-31T13:29:09.287Z,1908
2017-01-31T13:30:20.693Z,1884
2017-01-31T13:31:32.096Z,1820
2017-01-31T13:32:43.556Z,1748
2017-01-31T13:33:54.960Z,1712
2017-01-31T13:35:06.374Z,1692
2017-01-31T13:36:17.779Z,1676
2017-01-31T13:37:29.222Z,1676
2017-01-31T13:38:40.882Z,1672
2017-01-31T13:39:52.527Z,1656
2017-01-31T13:41:03.930Z,1656
2017-01-31T13:42:15.337Z,1660
2017-01-31T13:43:26.749Z,1632
2017-01-31T13:44:38.210Z,1588
2017-01-31T13:45:49.816Z,1592
2017-01-31T13:47:01.268Z,1632
2017-01-31T13:48:12.675Z,1660
2017-01-31T13:49:24.082Z,1680
2017-01-31T13:50:35.744Z,1704
2017-01-31T13:51:47.149Z,1716
2017-01-31T13:52:58.558Z,1748
2017-01-31T13:54:10.003Z,1792
2017-01-31T13:55:21.421Z,1832
2017-01-31T13:56:32.903Z,1872
2017-01-31T13:57:44.356Z,1884
2017-01-31T13:58:55.761Z,1848
2017-01-31T14:00:07.161Z,1812
2017-01-31T14:01:18.567Z,1800
2017-01-31T14:02:30.026Z,1804
2017-01-31T14:03:41.638Z,1820
2017-01-31T14:04:53.043Z,1832
2017-01-31T14:06:04.451Z,1824
2017-01-31T14:07:15.859Z,1788
2017-01-31T14:08:27.316Z,1736
2017-01-31T14:09:38.726Z,1684
2017-01-31T14:10:50.137Z,1644
2017-01-31T14:12:01.758Z,1596
2017-01-31T14:13:13.172Z,1504
2017-01-31T14:14:24.618Z,1396
2017-01-31T14:15:36.234Z,1316
2017-01-31T14:16:47.643Z,1288
2017-01-31T14:17:59.060Z,1276
2017-01-31T14:19:10.667Z,1256
2017-01-31T14:20:22.117Z,1244
2017-01-31T14:21:33.523Z,1240
2017-01-31T14:22:44.921Z,1236
2017-01-31T14:23:56.330Z,1228
2017-01-31T14:25:07.795Z,1220
2017-01-31T14:26:19.268Z,1200
2017-01-31T14:27:30.674Z,1184
2017-01-31T14:28:42.102Z,1180
2017-01-31T14:29:53.714Z,1168
2017-01-31T14:31:05.114Z,1148
2017-01-31T14:32:16.773Z,1144
2017-01-31T14:33:28.379Z,1152
2017-01-31T14:34:39.983Z,1180
2017-01-31T14:35:51.387Z,1232
2017-01-31T14:37:02.795Z,1296
2017-01-31T14:38:14.261Z,1344
2017-01-31T14:39:25.880Z,1344
2017-01-31T14:40:37.293Z,1288
2017-01-31T14:41:48.704Z,1216
2017-01-31T14:43:00.112Z,1172
2017-01-31T14:44:11.777Z,1140
2017-01-31T14:45:23.386Z,1096
2017-01-31T14:46:34.996Z,1032
2017-01-31T14:47:46.399Z,984
2017-01-31T14:48:57.811Z,968
2017-01-31T14:50:09.270Z,956
2017-01-31T14:51:20.681Z,948
2017-01-31T14:52:32.091Z,940
2017-01-31T14:53:43.695Z,948
2017-01-31T14:54:55.305Z,956
2017-01-31T14:56:06.765Z,960
2017-01-31T14:57:18.376Z,984
2017-01-31T14:58:29.790Z,1032
2017-01-31T14:59:41.200Z,1088
2017-01-31T15:00:53.015Z,1140
2017-01-31T15:02:04.488Z,1180
2017-01-31T15:03:15.900Z,1208
2017-01-31T15:04:27.311Z,1236
2017-01-31T15:05:38.922Z,1268
2017-01-31T15:06:50.337Z,1284
2017-01-31T15:08:01.790Z,1284
2017-01-31T15:09:13.206Z,1280
2017-01-31T15:10:24.814Z,1252
2017-01-31T15:11:36.222Z,1216
2017-01-31T15:12:47.632Z,1188
2017-01-31T15:13:59.125Z,1160
2017-01-31T15:15:10.748Z,1136
2017-01-31T15:16:22.161Z,1116
2017-01-31T15:17:33.570Z,1096
2017-01-31T15:18:44.974Z,1072
2017-01-31T15:19:56.442Z,1028
2017-01-31T15:21:08.048Z,972
2017-01-31T15:22:19.651Z,908
2017-01-31T15:23:31.474Z,840
2017-01-31T15:24:42.886Z,772
2017-01-31T15:25:54.349Z,724
2017-01-31T15:27:05.760Z,704
2017-01-31T15:28:17.367Z,684
2017-01-31T15:29:28.765Z,652
2017-01-31T15:30:40.388Z,600
2017-01-31T15:31:52.042Z,548
2017-01-31T15:33:03.451Z,492
2017-01-31T15:34:14.857Z,456
2017-01-31T15:35:26.271Z,436
2017-01-31T15:36:37.883Z,420
2017-01-31T15:37:49.337Z,404
2017-01-31T15:39:00.949Z,384
2017-01-31T15:40:12.359Z,372
2017-01-31T15:41:24.167Z,368
2017-01-31T15:42:35.581Z,368
2017-01-31T15:43:47.045Z,368
2017-01-31T15:44:58.453Z,364
2017-01-31T15:46:09.868Z,348
2017-01-31T15:47:21.274Z,328
2017-01-31T15:48:32.689Z,304
2017-01-31T15:49:44.141Z,292
2017-01-31T15:50:55.547Z,276
2017-01-31T15:52:07.161Z,264
2017-01-31T15:53:18.577Z,252
2017-01-31T15:54:29.989Z,248
2017-01-31T15:55:41.454Z,236
2017-01-31T15:56:53.077Z,228
2017-01-31T15:58:04.488Z,224
2017-01-31T15:59:15.912Z,220
2017-01-31T16:00:27.314Z,212
2017-01-31T16:01:39.179Z,204
2017-01-31T16:02:50.612Z,188
2017-01-31T16:04:02.021Z,176
2017-01-31T16:05:13.438Z,168
2017-01-31T16:06:25.042Z,152
2017-01-31T16:07:36.897Z,144
2017-01-31T16:08:48.312Z,132
2017-01-31T16:09:59.731Z,124
2017-01-31T16:11:11.154Z,112
2017-01-31T16:12:22.555Z,96
2017-01-31T16:13:34.017Z,84
2017-01-31T16:14:45.425Z,72
2017-01-31T16:15:57.037Z,64
2017-01-31T16:17:08.442Z,60
2017-01-31T16:18:19.849Z,52
2017-01-31T16:19:31.312Z,44
2017-01-31T16:20:42.728Z,36
2017-01-31T16:21:54.537Z,36
2017-01-31T16:23:05.948Z,28
2017-01-31T16:24:17.361Z,28
2017-01-31T16:25:28.823Z,24
2017-01-31T16:26:40.435Z,20
2017-01-31T16:27:51.845Z,16
2017-01-31T16:29:03.261Z,16
2017-01-31T16:30:14.672Z,12
2017-01-31T16:31:26.134Z,8
2017-01-31T16:32:37.539Z,8
2017-01-31T16:33:49.150Z,8
2017-01-31T16:35:00.569Z,4
2017-01-31T16:36:12.005Z,4
2017-01-31T16:37:23.474Z,4
2017-01-31T16:38:34.881Z,4
2017-01-31T16:39:46.286Z,4
2017-01-31T16:40:57.711Z,4